createdAt,value
2017-11-23T00:02:13.159Z,4.30
2017-11-23T00:04:41.156Z,4.80
2017-11-23T00:07:08.671Z,5.80
2017-11-23T00:09:36.974Z,5.13
2017-11-23T00:12:04.495Z,5.23
2017-11-23T00:14:32.047Z,4.70
2017-11-23T00:16:59.577Z,5.10
2017-11-23T00:19:27.139Z,6.57
2017-11-23T00:21:54.692Z,4.93
2017-11-23T00:24:23.961Z,4.97
2017-11-23T00:26:52.255Z,5.27
2017-11-23T00:29:19.801Z,5.20
2017-11-23T00:31:47.355Z,6.10
2017-11-23T00:34:15.669Z,5.93
2017-11-23T00:36:43.190Z,5.83
2017-11-23T00:39:10.727Z,5.43
2017-11-23T00:41:39.033Z,5.60
2017-11-23T00:44:06.663Z,5.80
2017-11-23T00:46:34.183Z,5.03
2017-11-23T00:49:01.750Z,5.40
2017-11-23T00:51:29.273Z,5.50
2017-11-23T00:53:57.599Z,5.00
2017-11-23T00:56:25.132Z,5.33
2017-11-23T00:58:52.671Z,5.20
2017-11-23T01:01:21.116Z,4.97
2017-11-23T01:03:48.657Z,5.67
2017-11-23T01:06:16.193Z,6.00
2017-11-23T01:08:43.723Z,5.63
2017-11-23T01:11:11.259Z,4.80
2017-11-23T01:13:38.800Z,4.60
2017-11-23T01:16:06.327Z,5.60
2017-11-23T01:18:34.765Z,5.40
2017-11-23T01:21:02.323Z,4.60
2017-11-23T01:23:30.476Z,5.50
2017-11-23T01:25:58.287Z,5.73
2017-11-23T01:28:26.311Z,5.50
2017-11-23T01:30:53.842Z,5.10
2017-11-23T01:33:21.356Z,5.20
2017-11-23T01:35:48.895Z,6.40
2017-11-23T01:38:16.807Z,5.63
2017-11-23T01:40:44.340Z,5.43
2017-11-23T01:43:11.908Z,6.40
2017-11-23T01:45:39.458Z,5.43
2017-11-23T01:48:07.735Z,5.30
2017-11-23T01:50:35.589Z,5.90
2017-11-23T01:53:03.098Z,5.97
2017-11-23T01:55:30.648Z,6.30
2017-11-23T01:57:58.935Z,6.00
2017-11-23T02:00:26.905Z,5.57
2017-11-23T02:02:55.167Z,5.67
2017-11-23T02:05:22.726Z,5.13
2017-11-23T02:07:50.255Z,5.97
2017-11-23T02:10:18.703Z,5.77
2017-11-23T02:12:46.220Z,5.90
2017-11-23T02:15:13.797Z,5.10
2017-11-23T02:17:41.319Z,5.50
2017-11-23T02:20:08.871Z,4.60
2017-11-23T02:22:37.017Z,4.90
2017-11-23T02:25:04.552Z,5.00
2017-11-23T02:27:32.939Z,4.63
2017-11-23T02:30:01.314Z,4.77
2017-11-23T02:32:28.824Z,4.83
2017-11-23T02:34:57.181Z,5.10
2017-11-23T02:37:24.706Z,5.37
2017-11-23T02:39:52.221Z,4.47
2017-11-23T02:42:19.760Z,4.10
2017-11-23T02:44:47.283Z,4.80
2017-11-23T02:47:15.588Z,4.90
2017-11-23T02:49:43.095Z,5.23
2017-11-23T02:52:10.638Z,4.70
2017-11-23T02:54:38.150Z,5.10
2017-11-23T02:57:05.703Z,4.50
2017-11-23T02:59:33.214Z,5.83
2017-11-23T03:02:00.751Z,4.30
2017-11-23T03:04:28.280Z,5.57
2017-11-23T03:06:56.596Z,5.03
2017-11-23T03:09:24.114Z,4.43
2017-11-23T03:11:51.728Z,4.50
2017-11-23T03:14:19.247Z,5.13
2017-11-23T03:16:47.524Z,5.70
2017-11-23T03:19:16.432Z,5.00
2017-11-23T03:21:43.968Z,5.07
2017-11-23T03:24:12.319Z,5.40
2017-11-23T03:26:39.903Z,5.50
2017-11-23T03:29:07.423Z,4.97
2017-11-23T03:31:35.815Z,5.27
2017-11-23T03:34:03.339Z,5.13
2017-11-23T03:36:30.884Z,5.50
2017-11-23T03:38:58.401Z,4.90
2017-11-23T03:41:26.047Z,6.10
2017-11-23T03:43:53.559Z,6.37
2017-11-23T03:46:21.100Z,5.30
2017-11-23T03:48:48.617Z,5.57
2017-11-23T03:51:16.148Z,5.73
2017-11-23T03:53:44.468Z,4.33
2017-11-23T03:56:11.964Z,6.37
2017-11-23T03:58:39.543Z,5.50
2017-11-23T04:01:07.503Z,5.20
2017-11-23T04:03:35.807Z,5.63
2017-11-23T04:06:03.333Z,5.10
2017-11-23T04:08:31.634Z,6.13
2017-11-23T04:10:59.159Z,5.20
2017-11-23T04:13:27.827Z,5.73
2017-11-23T04:15:55.351Z,4.73
2017-11-23T04:18:22.914Z,4.10
2017-11-23T04:20:50.467Z,5.03
2017-11-23T04:23:18.009Z,4.83
2017-11-23T04:25:45.531Z,5.57
2017-11-23T04:28:13.079Z,4.60
2017-11-23T04:30:40.604Z,6.10
2017-11-23T04:33:08.144Z,5.17
2017-11-23T04:35:36.423Z,5.00
2017-11-23T04:38:04.075Z,4.83
2017-11-23T04:40:31.594Z,4.70
2017-11-23T04:42:59.165Z,5.70
2017-11-23T04:45:26.687Z,4.93
2017-11-23T04:47:54.260Z,5.80
2017-11-23T04:50:21.778Z,5.37
2017-11-23T04:52:49.442Z,4.97
2017-11-23T04:55:17.350Z,4.90
2017-11-23T04:57:44.883Z,5.70
2017-11-23T05:00:13.167Z,4.87
2017-11-23T05:02:41.460Z,5.10
2017-11-23T05:05:08.985Z,5.20
2017-11-23T05:07:37.295Z,4.70
2017-11-23T05:10:05.067Z,5.90
2017-11-23T05:12:32.786Z,5.93
2017-11-23T05:15:00.392Z,5.73
2017-11-23T05:17:27.911Z,5.47
2017-11-23T05:19:55.538Z,5.40
2017-11-23T05:22:23.059Z,7.03
2017-11-23T05:24:50.594Z,4.63
2017-11-23T05:27:18.223Z,4.93
2017-11-23T05:29:45.769Z,7.17
2017-11-23T05:32:13.323Z,6.23
2017-11-23T05:34:40.984Z,6.80
2017-11-23T05:37:08.684Z,7.50
2017-11-23T05:39:36.267Z,8.30
2017-11-23T05:42:03.783Z,8.33
2017-11-23T05:44:31.334Z,7.47
2017-11-23T05:46:59.307Z,7.83
2017-11-23T05:49:26.846Z,7.23
2017-11-23T05:51:54.620Z,7.07
2017-11-23T05:54:22.166Z,6.03
2017-11-23T05:56:49.700Z,5.50
2017-11-23T05:59:18.009Z,6.17
2017-11-23T06:01:45.693Z,6.67
2017-11-23T06:04:13.276Z,5.80
2017-11-23T06:06:40.795Z,5.67
2017-11-23T06:09:08.903Z,5.17
2017-11-23T06:11:36.741Z,6.93
2017-11-23T06:14:04.618Z,6.37
2017-11-23T06:16:32.408Z,6.90
2017-11-23T06:19:00.375Z,7.50
2017-11-23T06:21:28.223Z,7.83
2017-11-23T06:23:55.773Z,7.23
2017-11-23T06:26:24.068Z,7.40
2017-11-23T06:28:51.591Z,7.00
2017-11-23T06:31:19.983Z,9.07
2017-11-23T06:33:48.519Z,8.03
2017-11-23T06:36:17.627Z,7.33
2017-11-23T06:38:48.339Z,7.90
2017-11-23T06:41:16.100Z,8.00
2017-11-23T06:43:48.429Z,7.13
2017-11-23T06:46:16.063Z,5.23
2017-11-23T06:48:45.127Z,6.20
2017-11-23T06:51:12.804Z,6.53
2017-11-23T06:53:41.485Z,8.20
2017-11-23T06:56:09.133Z,8.03
2017-11-23T06:58:38.215Z,7.60
2017-11-23T07:01:07.623Z,6.87
2017-11-23T07:03:35.957Z,7.10
2017-11-23T07:06:04.396Z,8.07
2017-11-23T07:08:32.260Z,6.53
2017-11-23T07:11:01.182Z,6.10
2017-11-23T07:13:28.701Z,5.93
2017-11-23T07:15:56.355Z,7.53
2017-11-23T07:18:25.545Z,6.30
2017-11-23T07:20:53.504Z,7.37
2017-11-23T07:23:21.079Z,6.97
2017-11-23T07:25:48.628Z,6.93
2017-11-23T07:28:19.382Z,5.90
2017-11-23T07:30:47.738Z,6.60
2017-11-23T07:33:16.039Z,5.80
2017-11-23T07:35:44.351Z,7.13
2017-11-23T07:38:11.944Z,8.97
2017-11-23T07:40:40.767Z,7.20
2017-11-23T07:43:10.127Z,7.30
2017-11-23T07:45:39.548Z,7.60
2017-11-23T07:48:07.835Z,8.17
2017-11-23T07:50:35.782Z,7.60
2017-11-23T07:53:04.715Z,7.80
2017-11-23T07:55:33.812Z,7.17
2017-11-23T07:58:01.338Z,6.77
2017-11-23T08:00:29.633Z,7.37
2017-11-23T08:02:57.347Z,7.70
2017-11-23T08:05:25.287Z,7.50
2017-11-23T08:07:53.688Z,7.53
2017-11-23T08:10:21.637Z,7.40
2017-11-23T08:12:49.198Z,6.50
2017-11-23T08:15:19.290Z,7.27
2017-11-23T08:17:47.602Z,7.90
2017-11-23T08:20:15.184Z,8.37
2017-11-23T08:22:44.456Z,9.00
2017-11-23T08:25:12.945Z,9.77
2017-11-23T08:27:41.624Z,8.40
2017-11-23T08:30:10.212Z,7.43
2017-11-23T08:32:38.160Z,8.63
2017-11-23T08:35:05.694Z,8.17
2017-11-23T08:37:34.471Z,8.63
2017-11-23T08:40:02.000Z,9.40
2017-11-23T08:42:30.354Z,8.47
2017-11-23T08:44:58.647Z,8.00
2017-11-23T08:47:28.796Z,9.27
2017-11-23T08:49:57.083Z,7.60
2017-11-23T08:52:25.039Z,8.70
2017-11-23T08:54:55.808Z,9.70
2017-11-23T08:57:24.461Z,9.37
2017-11-23T08:59:53.517Z,10.23
2017-11-23T09:02:22.245Z,10.37
2017-11-23T09:04:49.781Z,11.60
2017-11-23T09:07:17.726Z,13.20
2017-11-23T09:09:45.261Z,13.43
2017-11-23T09:12:15.290Z,11.03
2017-11-23T09:14:43.034Z,10.20
2017-11-23T09:17:12.320Z,11.20
2017-11-23T09:19:40.869Z,10.80
2017-11-23T09:22:09.179Z,11.07
2017-11-23T09:24:39.193Z,10.90
2017-11-23T09:27:07.547Z,10.33
2017-11-23T09:29:35.470Z,11.50
2017-11-23T09:32:03.006Z,11.80
2017-11-23T09:34:30.957Z,10.77
2017-11-23T09:36:59.739Z,11.33
2017-11-23T09:39:28.560Z,12.40
2017-11-23T09:41:56.481Z,10.90
2017-11-23T09:44:27.170Z,12.23
2017-11-23T09:46:55.457Z,13.80
2017-11-23T09:49:30.236Z,12.60
2017-11-23T09:51:59.022Z,12.73
2017-11-23T09:54:28.049Z,11.70
2017-11-23T09:56:55.629Z,13.17
2017-11-23T09:59:23.940Z,13.33
2017-11-23T10:01:52.295Z,12.93
2017-11-23T10:04:20.603Z,11.73
2017-11-23T10:06:48.165Z,11.47
2017-11-23T10:09:16.128Z,10.77
2017-11-23T10:11:44.259Z,10.67
2017-11-23T10:14:18.770Z,13.03
2017-11-23T10:16:46.955Z,9.57
2017-11-23T10:19:16.199Z,10.23
2017-11-23T10:21:45.664Z,11.00
2017-11-23T10:24:13.938Z,13.33
2017-11-23T10:26:41.476Z,12.00
2017-11-23T10:29:10.330Z,11.03
2017-11-23T10:31:38.192Z,11.53
2017-11-23T10:34:06.537Z,11.47
2017-11-23T10:36:34.614Z,11.37
2017-11-23T10:39:03.671Z,11.70
2017-11-23T10:41:32.168Z,14.07
2017-11-23T10:43:59.759Z,13.30
2017-11-23T10:46:28.190Z,11.30
2017-11-23T10:48:56.497Z,11.10
2017-11-23T10:51:26.204Z,11.70
2017-11-23T10:53:54.536Z,11.23
2017-11-23T10:56:22.834Z,12.13
2017-11-23T10:58:51.271Z,11.23
2017-11-23T11:01:19.791Z,11.30
2017-11-23T11:03:47.869Z,13.40
2017-11-23T11:06:17.003Z,13.67
2017-11-23T11:08:44.539Z,13.53
2017-11-23T11:11:13.947Z,12.70
2017-11-23T11:13:41.490Z,11.43
2017-11-23T11:16:09.586Z,11.53
2017-11-23T11:18:37.886Z,13.17
2017-11-23T11:21:06.351Z,10.60
2017-11-23T11:23:34.659Z,12.30
2017-11-23T11:26:03.946Z,14.80
2017-11-23T11:28:32.227Z,15.07
2017-11-23T11:31:00.744Z,13.20
2017-11-23T11:33:28.704Z,12.50
2017-11-23T11:35:56.465Z,12.93
2017-11-23T11:38:25.337Z,11.47
2017-11-23T11:40:52.887Z,13.17
2017-11-23T11:43:20.415Z,8.10
2017-11-23T11:45:48.775Z,9.30
2017-11-23T11:48:17.768Z,9.90
2017-11-23T11:50:45.298Z,6.40
2017-11-23T11:53:13.595Z,9.30
2017-11-23T11:55:41.326Z,7.50
2017-11-23T11:58:08.876Z,8.07
2017-11-23T12:00:38.391Z,9.17
2017-11-23T12:03:05.972Z,8.87
2017-11-23T12:05:34.246Z,9.10
2017-11-23T12:08:02.843Z,9.07
2017-11-23T12:10:30.780Z,8.57
2017-11-23T12:12:59.073Z,7.80
2017-11-23T12:15:34.015Z,7.47
2017-11-23T12:18:13.828Z,8.20
2017-11-23T12:20:54.046Z,6.90
2017-11-23T12:26:23.110Z,7.00
2017-11-23T12:29:02.394Z,8.60
2017-11-23T12:31:29.965Z,9.63
2017-11-23T12:33:58.960Z,9.40
2017-11-23T12:36:26.749Z,8.27
2017-11-23T12:38:55.276Z,7.53
2017-11-23T12:41:23.832Z,6.90
2017-11-23T12:43:52.261Z,5.73
2017-11-23T12:46:19.999Z,4.93
2017-11-23T12:48:47.925Z,5.07
2017-11-23T12:51:16.235Z,4.57
2017-11-23T12:53:44.660Z,5.37
2017-11-23T12:56:13.137Z,4.70
2017-11-23T12:58:41.665Z,3.83
2017-11-23T13:01:09.620Z,3.67
2017-11-23T13:03:38.736Z,3.70
2017-11-23T13:06:06.921Z,3.80
2017-11-23T13:08:35.812Z,3.90
2017-11-23T13:11:04.571Z,4.50
2017-11-23T13:13:34.354Z,4.03
2017-11-23T13:16:03.112Z,4.87
2017-11-23T13:18:30.636Z,4.40
2017-11-23T13:20:58.167Z,4.80
2017-11-23T13:23:26.117Z,4.57
2017-11-23T13:25:54.745Z,5.17
2017-11-23T13:28:24.523Z,4.00
2017-11-23T13:30:52.793Z,4.50
2017-11-23T13:33:21.011Z,4.80
2017-11-23T13:35:50.022Z,4.63
2017-11-23T13:38:18.433Z,4.40
2017-11-23T13:40:47.558Z,4.07
2017-11-23T13:43:15.954Z,4.20
2017-11-23T13:45:44.817Z,4.37
2017-11-23T13:48:13.436Z,4.43
2017-11-23T13:50:40.956Z,4.17
2017-11-23T13:53:08.907Z,4.00
2017-11-23T13:55:40.768Z,4.20
2017-11-23T13:58:08.384Z,4.17
2017-11-23T14:00:36.789Z,4.07
2017-11-23T14:03:05.247Z,3.60
2017-11-23T14:05:33.770Z,4.17
2017-11-23T14:08:03.633Z,3.70
2017-11-23T14:10:31.560Z,4.37
2017-11-23T14:12:59.907Z,3.90
2017-11-23T14:15:30.426Z,4.27
2017-11-23T14:17:58.478Z,4.33
2017-11-23T14:20:26.411Z,3.53
2017-11-23T14:22:54.740Z,3.63
2017-11-23T14:25:23.035Z,4.07
2017-11-23T14:27:51.335Z,3.57
2017-11-23T14:30:19.674Z,3.30
2017-11-23T14:32:48.757Z,2.90
2017-11-23T14:35:17.069Z,3.50
2017-11-23T14:37:44.610Z,3.03
2017-11-23T14:40:12.934Z,3.60
2017-11-23T14:42:42.167Z,3.53
2017-11-23T14:45:09.811Z,3.67
2017-11-23T14:47:39.120Z,3.43
2017-11-23T14:50:08.454Z,3.13
2017-11-23T14:52:36.017Z,2.90
2017-11-23T14:55:03.897Z,3.40
2017-11-23T14:57:32.255Z,3.37
2017-11-23T14:59:59.804Z,3.57
2017-11-23T15:02:28.639Z,2.77
2017-11-23T15:04:57.387Z,3.10
2017-11-23T15:07:24.912Z,2.47
2017-11-23T15:09:53.232Z,2.80
2017-11-23T15:12:21.591Z,3.07
2017-11-23T15:14:49.896Z,3.07
2017-11-23T15:17:18.291Z,2.60
2017-11-23T15:19:47.484Z,2.63
2017-11-23T15:22:15.015Z,3.00
2017-11-23T15:24:43.212Z,3.00
2017-11-23T15:27:12.462Z,3.10
2017-11-23T15:29:40.402Z,3.17
2017-11-23T15:32:08.963Z,3.47
2017-11-23T15:34:36.574Z,2.80
2017-11-23T15:37:05.080Z,3.50
2017-11-23T15:39:33.061Z,3.20
2017-11-23T15:42:01.376Z,2.90
2017-11-23T15:44:30.277Z,3.60
2017-11-23T15:46:58.221Z,2.90
2017-11-23T15:49:27.610Z,3.27
2017-11-23T15:51:57.275Z,3.27
2017-11-23T15:54:26.506Z,3.00
2017-11-23T15:56:54.436Z,3.17
2017-11-23T15:59:22.733Z,3.33
2017-11-23T16:01:51.737Z,3.70
2017-11-23T16:04:19.300Z,3.10
2017-11-23T16:06:48.444Z,8.03
2017-11-23T16:09:17.148Z,9.20
2017-11-23T16:11:47.510Z,8.87
2017-11-23T16:14:16.362Z,7.30
2017-11-23T16:16:43.949Z,6.30
2017-11-23T16:19:12.383Z,4.43
2017-11-23T16:21:40.348Z,4.70
2017-11-23T16:24:09.430Z,4.47
2017-11-23T16:26:37.110Z,4.27
2017-11-23T16:29:07.949Z,3.77
2017-11-23T16:31:36.488Z,3.80
2017-11-23T16:34:04.781Z,4.50
2017-11-23T16:36:36.096Z,6.27
2017-11-23T16:39:07.267Z,6.57
2017-11-23T16:41:36.420Z,5.20
2017-11-23T16:44:11.247Z,8.40
2017-11-23T16:46:54.026Z,7.03
2017-11-23T16:49:29.576Z,9.23
2017-11-23T16:52:03.131Z,8.07
2017-11-23T16:54:38.048Z,9.00
2017-11-23T16:57:11.213Z,8.90
2017-11-23T16:59:44.822Z,8.67
2017-11-23T17:02:19.595Z,12.63
2017-11-23T17:04:57.056Z,9.03
2017-11-23T17:07:31.025Z,9.50
2017-11-23T17:10:06.536Z,9.17
2017-11-23T17:12:40.789Z,11.77
2017-11-23T17:15:17.280Z,9.00
2017-11-23T17:17:52.729Z,10.03
2017-11-23T17:20:21.520Z,10.43
2017-11-23T17:22:50.702Z,14.10
2017-11-23T17:25:19.062Z,22.37
2017-11-23T17:27:46.754Z,14.00
2017-11-23T17:30:14.736Z,13.13
2017-11-23T17:32:43.242Z,11.53
2017-11-23T17:35:12.458Z,10.50
2017-11-23T17:37:41.066Z,10.13
2017-11-23T17:40:09.359Z,9.53
2017-11-23T17:42:37.740Z,11.03
2017-11-23T17:45:06.232Z,11.10
2017-11-23T17:47:34.558Z,12.50
2017-11-23T17:50:03.451Z,12.30
2017-11-23T17:52:31.143Z,10.90
2017-11-23T17:54:59.439Z,11.87
2017-11-23T17:57:28.549Z,11.73
2017-11-23T17:59:58.078Z,11.80
2017-11-23T18:02:25.607Z,11.53
2017-11-23T18:04:53.154Z,12.53
2017-11-23T18:07:21.088Z,11.13
2017-11-23T18:09:50.386Z,10.07
2017-11-23T18:12:18.688Z,12.50
2017-11-23T18:14:47.058Z,10.83
2017-11-23T18:17:15.311Z,12.17
2017-11-23T18:19:42.897Z,10.57
2017-11-23T18:22:10.826Z,11.40
2017-11-23T18:24:44.783Z,11.40
2017-11-23T18:27:13.567Z,12.10
2017-11-23T18:29:41.635Z,11.70
2017-11-23T18:32:11.771Z,11.40
2017-11-23T18:34:40.131Z,11.40
2017-11-23T18:37:08.052Z,10.73
2017-11-23T18:39:37.870Z,11.93
2017-11-23T18:42:05.881Z,10.10
2017-11-23T18:44:34.408Z,10.73
2017-11-23T18:47:02.713Z,11.13
2017-11-23T18:49:31.468Z,13.10
2017-11-23T18:51:59.393Z,12.10
2017-11-23T18:54:27.772Z,12.97
2017-11-23T18:56:56.149Z,12.80
2017-11-23T18:59:24.353Z,11.53
2017-11-23T19:01:52.783Z,11.23
2017-11-23T19:04:20.817Z,10.83
2017-11-23T19:06:49.149Z,9.20
2017-11-23T19:09:18.007Z,9.23
2017-11-23T19:11:46.741Z,11.97
2017-11-23T19:14:14.364Z,8.67
2017-11-23T19:16:42.944Z,9.07
2017-11-23T19:19:11.656Z,7.53
2017-11-23T19:21:39.240Z,7.40
2017-11-23T19:24:07.645Z,7.13
2017-11-23T19:26:37.692Z,6.80
2017-11-23T19:29:06.621Z,7.30
2017-11-23T19:31:34.819Z,7.27
2017-11-23T19:34:02.494Z,6.13
2017-11-23T19:36:30.913Z,6.57
2017-11-23T19:38:58.894Z,6.57
2017-11-23T19:41:27.262Z,6.83
2017-11-23T19:43:55.628Z,6.80
2017-11-23T19:46:24.003Z,6.60
2017-11-23T19:48:52.572Z,6.47
2017-11-23T19:51:20.793Z,7.10
2017-11-23T19:53:48.775Z,8.17
2017-11-23T19:56:18.633Z,7.80
2017-11-23T19:58:47.030Z,7.00
2017-11-23T20:01:15.391Z,7.83
2017-11-23T20:03:43.763Z,7.30
2017-11-23T20:06:12.160Z,7.77
2017-11-23T20:08:40.119Z,8.27
2017-11-23T20:11:08.905Z,10.10
2017-11-23T20:13:36.867Z,9.17
2017-11-23T20:16:05.191Z,7.43
2017-11-23T20:18:33.619Z,8.53
2017-11-23T20:21:02.293Z,8.50
2017-11-23T20:23:30.469Z,8.40
2017-11-23T20:25:58.657Z,9.00
2017-11-23T20:28:27.035Z,9.83
2017-11-23T20:30:55.089Z,10.20
2017-11-23T20:33:24.195Z,11.00
2017-11-23T20:35:51.777Z,11.07
2017-11-23T20:38:20.135Z,10.83
2017-11-23T20:40:48.497Z,10.90
2017-11-23T20:43:17.334Z,10.50
2017-11-23T20:45:44.918Z,11.80
2017-11-23T20:48:12.509Z,12.03
2017-11-23T20:50:40.533Z,11.07
2017-11-23T20:53:10.667Z,8.20
2017-11-23T20:55:41.478Z,11.97
2017-11-23T20:58:09.453Z,8.73
2017-11-23T21:00:38.814Z,11.40
2017-11-23T21:03:07.343Z,11.70
2017-11-23T21:05:34.936Z,9.37
2017-11-23T21:08:02.980Z,13.40
2017-11-23T21:10:30.987Z,9.83
2017-11-23T21:13:02.237Z,14.77
2017-11-23T21:15:31.040Z,13.30
2017-11-23T21:17:59.083Z,11.40
2017-11-23T21:20:27.048Z,12.00
2017-11-23T21:22:55.927Z,15.07
2017-11-23T21:25:23.892Z,15.17
2017-11-23T21:27:52.259Z,15.77
2017-11-23T21:30:20.628Z,15.00
2017-11-23T21:32:48.650Z,13.67
2017-11-23T21:35:17.065Z,13.83
2017-11-23T21:37:45.417Z,12.77
2017-11-23T21:40:13.752Z,11.80
2017-11-23T21:42:42.028Z,13.70
2017-11-23T21:45:10.425Z,12.00
2017-11-23T21:47:38.999Z,14.17
2017-11-23T21:50:07.196Z,13.43
2017-11-23T21:52:35.614Z,13.30
2017-11-23T21:55:03.610Z,14.63
2017-11-23T21:57:33.671Z,13.07
2017-11-23T22:00:01.734Z,11.80
2017-11-23T22:02:30.824Z,10.70
2017-11-23T22:04:58.380Z,11.83
2017-11-23T22:07:27.018Z,11.40
2017-11-23T22:09:55.005Z,10.17
2017-11-23T22:12:23.354Z,9.80
2017-11-23T22:14:51.894Z,9.40
2017-11-23T22:17:21.046Z,9.47
2017-11-23T22:19:49.023Z,9.30
2017-11-23T22:22:17.544Z,9.37
2017-11-23T22:24:45.207Z,8.80
2017-11-23T22:27:13.323Z,9.67
2017-11-23T22:29:41.695Z,10.33
2017-11-23T22:32:09.980Z,9.50
2017-11-23T22:34:38.284Z,11.97
2017-11-23T22:37:07.711Z,9.87
2017-11-23T22:39:36.392Z,11.30
2017-11-23T22:42:04.861Z,10.43
2017-11-23T22:44:33.102Z,9.90
2017-11-23T22:47:01.728Z,10.03
2017-11-23T22:49:29.668Z,8.97
2017-11-23T22:51:58.372Z,8.40
2017-11-23T22:54:26.456Z,10.67
2017-11-23T22:56:54.469Z,9.30
2017-11-23T22:59:22.931Z,11.00
2017-11-23T23:01:51.245Z,8.80
2017-11-23T23:04:19.603Z,9.80
2017-11-23T23:06:47.975Z,10.30
2017-11-23T23:09:16.884Z,9.17
2017-11-23T23:11:44.447Z,8.73
2017-11-23T23:14:12.746Z,10.70
2017-11-23T23:16:41.287Z,10.13
2017-11-23T23:19:10.535Z,10.00
2017-11-23T23:21:42.023Z,9.90
2017-11-23T23:27:09.582Z,8.80
2017-11-23T23:29:37.684Z,10.90
2017-11-23T23:32:06.071Z,10.57
2017-11-23T23:34:34.919Z,9.10
2017-11-23T23:37:04.171Z,7.63
2017-11-23T23:39:32.487Z,10.97
2017-11-23T23:42:17.183Z,9.73
2017-11-23T23:44:46.360Z,8.70
2017-11-23T23:47:13.960Z,8.77
2017-11-23T23:49:42.264Z,9.77
2017-11-23T23:52:10.677Z,9.50
2017-11-23T23:54:39.090Z,11.27
2017-11-23T23:57:07.611Z,11.70
2017-11-23T23:59:35.923Z,9.73
